createdAt,value
2019-02-28T00:00:24.871Z,49.80
2019-02-28T00:01:24.828Z,49.82
2019-02-28T00:02:24.820Z,49.80
2019-02-28T00:03:26.106Z,49.41
2019-02-28T00:04:24.815Z,49.70
2019-02-28T00:05:24.811Z,49.49
2019-02-28T00:06:24.773Z,49.52
2019-02-28T00:07:24.764Z,49.08
2019-02-28T00:08:24.749Z,48.98
2019-02-28T00:09:25.646Z,48.88
2019-02-28T00:10:24.726Z,48.98
2019-02-28T00:11:24.732Z,49.18
2019-02-28T00:12:24.705Z,48.67
2019-02-28T00:13:24.696Z,48.88
2019-02-28T00:14:27.772Z,49.18
2019-02-28T00:15:24.676Z,49.29
2019-02-28T00:16:24.676Z,48.77
2019-02-28T00:17:24.649Z,48.16
2019-02-28T00:18:24.638Z,47.95
2019-02-28T00:19:24.627Z,48.49
2019-02-28T00:20:24.617Z,49.08
2019-02-28T00:21:24.632Z,48.90
2019-02-28T00:22:24.593Z,48.67
2019-02-28T00:23:24.581Z,48.57
2019-02-28T00:24:27.239Z,48.80
2019-02-28T00:25:25.564Z,49.52
2019-02-28T00:26:24.547Z,48.80
2019-02-28T00:27:24.555Z,49.00
2019-02-28T00:28:25.913Z,49.00
2019-02-28T00:29:24.513Z,48.59
2019-02-28T00:30:24.502Z,49.10
2019-02-28T00:31:24.490Z,49.00
2019-02-28T00:32:24.845Z,49.00
2019-02-28T00:33:24.468Z,49.64
2019-02-28T00:34:24.460Z,49.10
2019-02-28T00:35:24.446Z,49.31
2019-02-28T00:36:24.434Z,49.00
2019-02-28T00:37:25.564Z,49.72
2019-02-28T00:38:29.471Z,49.10
2019-02-28T00:39:25.417Z,49.72
2019-02-28T00:40:24.390Z,49.41
2019-02-28T00:41:24.378Z,49.72
2019-02-28T00:42:24.364Z,49.21
2019-02-28T00:43:25.159Z,49.21
2019-02-28T00:44:24.345Z,49.41
2019-02-28T00:45:24.332Z,49.72
2019-02-28T00:46:24.319Z,49.41
2019-02-28T00:47:24.316Z,49.72
2019-02-28T00:48:24.318Z,49.72
2019-02-28T00:49:25.075Z,49.52
2019-02-28T00:50:24.279Z,49.41
2019-02-28T00:51:24.263Z,49.41
2019-02-28T00:52:24.252Z,49.52
2019-02-28T00:53:24.270Z,49.21
2019-02-28T00:54:24.227Z,49.72
2019-02-28T00:55:24.222Z,50.54
2019-02-28T00:56:24.206Z,50.24
2019-02-28T00:57:24.682Z,50.46
2019-02-28T00:58:28.605Z,49.93
2019-02-28T00:59:25.187Z,50.44
2019-02-28T01:00:24.158Z,50.24
2019-02-28T01:01:24.148Z,49.72
2019-02-28T01:02:24.138Z,50.13
2019-02-28T01:03:27.446Z,50.34
2019-02-28T01:04:24.131Z,50.34
2019-02-28T01:05:24.106Z,50.54
2019-02-28T01:06:24.093Z,49.52
2019-02-28T01:07:24.079Z,50.75
2019-02-28T01:08:24.071Z,50.24
2019-02-28T01:09:24.084Z,50.13
2019-02-28T01:10:24.046Z,50.65
2019-02-28T01:11:24.033Z,50.57
2019-02-28T01:12:24.026Z,50.54
2019-02-28T01:13:27.253Z,50.88
2019-02-28T01:14:24.005Z,51.18
2019-02-28T01:15:24.008Z,50.75
2019-02-28T01:16:23.980Z,50.98
2019-02-28T01:17:26.500Z,49.74
2019-02-28T01:18:23.959Z,50.57
2019-02-28T01:19:23.944Z,49.95
2019-02-28T01:20:23.952Z,50.16
2019-02-28T01:21:24.582Z,50.46
2019-02-28T01:22:26.840Z,50.36
2019-02-28T01:23:23.897Z,49.85
2019-02-28T01:24:23.888Z,50.16
2019-02-28T01:25:23.904Z,50.57
2019-02-28T01:26:23.866Z,49.95
2019-02-28T01:27:23.852Z,49.74
2019-02-28T01:28:26.903Z,49.54
2019-02-28T01:29:23.830Z,49.64
2019-02-28T01:30:23.819Z,49.64
2019-02-28T01:31:23.824Z,49.13
2019-02-28T01:32:23.798Z,49.02
2019-02-28T01:33:24.999Z,49.02
2019-02-28T01:34:23.770Z,49.23
2019-02-28T01:35:23.765Z,49.64
2019-02-28T01:36:23.767Z,49.33
2019-02-28T01:37:23.737Z,48.92
2019-02-28T01:38:24.228Z,49.23
2019-02-28T01:39:23.715Z,49.64
2019-02-28T01:40:23.709Z,48.82
2019-02-28T01:41:23.720Z,48.82
2019-02-28T01:42:23.682Z,48.71
2019-02-28T01:43:28.360Z,47.99
2019-02-28T01:44:24.660Z,48.61
2019-02-28T01:45:23.645Z,47.58
2019-02-28T01:46:23.634Z,47.69
2019-02-28T01:47:23.638Z,47.89
2019-02-28T01:48:23.768Z,46.86
2019-02-28T01:49:26.028Z,47.05
2019-02-28T01:50:23.589Z,46.63
2019-02-28T01:51:23.577Z,47.05
2019-02-28T01:52:23.583Z,47.05
2019-02-28T01:53:23.555Z,47.05
2019-02-28T01:54:25.130Z,45.61
2019-02-28T01:55:23.531Z,46.33
2019-02-28T01:56:23.519Z,46.01
2019-02-28T01:57:23.537Z,45.71
2019-02-28T01:58:23.501Z,46.12
2019-02-28T01:59:26.150Z,46.33
2019-02-28T02:00:24.423Z,45.91
2019-02-28T02:01:23.465Z,45.81
2019-02-28T02:02:23.451Z,46.01
2019-02-28T02:03:23.456Z,45.81
2019-02-28T02:04:23.428Z,45.71
2019-02-28T02:05:23.416Z,45.61
2019-02-28T02:06:25.754Z,45.91
2019-02-28T02:07:23.393Z,45.50
2019-02-28T02:08:23.397Z,46.12
2019-02-28T02:09:23.370Z,45.48
2019-02-28T02:10:23.361Z,45.28
2019-02-28T02:11:23.346Z,44.96
2019-02-28T02:12:23.336Z,45.09
2019-02-28T02:13:23.359Z,45.37
2019-02-28T02:14:23.313Z,45.71
2019-02-28T02:15:23.300Z,44.86
2019-02-28T02:16:26.785Z,44.89
2019-02-28T02:17:23.284Z,45.28
2019-02-28T02:18:23.270Z,44.56
2019-02-28T02:19:23.274Z,43.73
2019-02-28T02:20:23.449Z,43.73
2019-02-28T02:21:23.652Z,45.37
2019-02-28T02:22:23.224Z,44.86
2019-02-28T02:23:23.211Z,44.96
2019-02-28T02:24:24.398Z,43.52
2019-02-28T02:25:23.187Z,43.52
2019-02-28T02:26:23.176Z,43.73
2019-02-28T02:27:23.164Z,44.76
2019-02-28T02:28:26.701Z,43.84
2019-02-28T02:29:23.170Z,44.14
2019-02-28T02:30:23.142Z,44.04
2019-02-28T02:31:27.252Z,43.73
2019-02-28T02:32:24.106Z,43.63
2019-02-28T02:33:23.100Z,43.42
2019-02-28T02:34:24.383Z,43.32
2019-02-28T02:35:23.092Z,43.42
2019-02-28T02:36:23.063Z,43.93
2019-02-28T02:37:26.389Z,43.42
2019-02-28T02:38:24.039Z,43.42
2019-02-28T02:39:23.659Z,43.32
2019-02-28T02:40:24.204Z,44.14
2019-02-28T02:41:23.005Z,43.52
2019-02-28T02:42:22.995Z,44.14
2019-02-28T02:43:23.150Z,43.12
2019-02-28T02:44:22.972Z,43.42
2019-02-28T02:45:22.979Z,43.63
2019-02-28T02:46:23.005Z,43.32
2019-02-28T02:47:22.937Z,43.63
2019-02-28T02:48:22.930Z,43.21
2019-02-28T02:49:22.913Z,43.32
2019-02-28T02:50:22.923Z,43.21
2019-02-28T02:51:22.890Z,43.73
2019-02-28T02:52:29.953Z,43.84
2019-02-28T02:53:23.871Z,43.12
2019-02-28T02:54:22.857Z,43.32
2019-02-28T02:55:27.708Z,44.24
2019-02-28T02:56:23.835Z,43.93
2019-02-28T02:57:23.662Z,43.63
2019-02-28T02:58:27.836Z,43.93
2019-02-28T02:59:22.798Z,43.40
2019-02-28T03:00:22.787Z,43.51
2019-02-28T03:01:23.442Z,43.42
2019-02-28T03:02:22.767Z,43.12
2019-02-28T03:03:22.754Z,43.52
2019-02-28T03:04:23.502Z,43.91
2019-02-28T03:05:22.730Z,42.68
2019-02-28T03:06:22.736Z,42.49
2019-02-28T03:07:24.562Z,42.68
2019-02-28T03:08:22.715Z,43.30
2019-02-28T03:09:22.689Z,42.68
2019-02-28T03:10:22.676Z,43.09
2019-02-28T03:11:24.747Z,43.19
2019-02-28T03:12:22.655Z,42.17
2019-02-28T03:13:22.648Z,42.27
2019-02-28T03:14:22.627Z,42.27
2019-02-28T03:15:26.951Z,42.29
2019-02-28T03:16:22.606Z,42.47
2019-02-28T03:17:22.615Z,43.12
2019-02-28T03:18:22.586Z,42.29
2019-02-28T03:19:23.165Z,42.47
2019-02-28T03:20:22.561Z,42.49
2019-02-28T03:21:22.549Z,42.40
2019-02-28T03:22:28.075Z,42.19
2019-02-28T03:23:23.526Z,42.40
2019-02-28T03:24:23.518Z,42.40
2019-02-28T03:25:28.263Z,42.49
2019-02-28T03:26:22.492Z,42.80
2019-02-28T03:27:22.509Z,42.29
2019-02-28T03:28:23.165Z,42.49
2019-02-28T03:29:22.466Z,42.49
2019-02-28T03:30:29.306Z,42.91
2019-02-28T03:31:23.446Z,41.88
2019-02-28T03:32:22.428Z,41.98
2019-02-28T03:33:27.223Z,43.12
2019-02-28T03:34:23.402Z,42.49
2019-02-28T03:35:22.392Z,42.29
2019-02-28T03:36:22.380Z,41.98
2019-02-28T03:37:22.367Z,41.98
2019-02-28T03:38:22.677Z,42.29
2019-02-28T03:39:24.599Z,42.49
2019-02-28T03:40:22.332Z,42.80
2019-02-28T03:41:22.327Z,43.63
2019-02-28T03:42:28.515Z,42.80
2019-02-28T03:43:23.332Z,42.49
2019-02-28T03:44:22.287Z,42.70
2019-02-28T03:45:22.282Z,42.80
2019-02-28T03:46:22.274Z,43.01
2019-02-28T03:47:23.852Z,43.42
2019-02-28T03:48:22.245Z,43.21
2019-02-28T03:49:23.166Z,42.40
2019-02-28T03:50:23.077Z,42.49
2019-02-28T03:51:22.215Z,43.12
2019-02-28T03:52:23.198Z,42.49
2019-02-28T03:53:22.188Z,42.19
2019-02-28T03:54:22.202Z,42.08
2019-02-28T03:55:22.161Z,42.29
2019-02-28T03:56:22.154Z,42.27
2019-02-28T03:57:28.004Z,42.58
2019-02-28T03:58:23.133Z,42.07
2019-02-28T03:59:22.157Z,41.14
2019-02-28T04:00:22.670Z,41.14
2019-02-28T04:01:22.090Z,42.27
2019-02-28T04:02:22.538Z,41.03
2019-02-28T04:03:22.123Z,42.17
2019-02-28T04:04:22.071Z,42.68
2019-02-28T04:05:28.092Z,42.37
2019-02-28T04:06:23.042Z,41.55
2019-02-28T04:07:23.692Z,42.27
2019-02-28T04:08:22.012Z,42.07
2019-02-28T04:09:22.002Z,42.07
2019-02-28T04:10:22.616Z,41.45
2019-02-28T04:11:21.980Z,42.07
2019-02-28T04:12:21.967Z,41.96
2019-02-28T04:13:21.958Z,42.47
2019-02-28T04:14:21.946Z,42.27
2019-02-28T04:15:21.935Z,42.17
2019-02-28T04:16:21.941Z,43.30
2019-02-28T04:17:21.914Z,42.79
2019-02-28T04:18:21.903Z,42.79
2019-02-28T04:19:22.980Z,42.79
2019-02-28T04:20:21.882Z,42.79
2019-02-28T04:21:21.899Z,42.79
2019-02-28T04:22:23.067Z,42.37
2019-02-28T04:23:21.844Z,42.47
2019-02-28T04:24:21.837Z,42.17
2019-02-28T04:25:24.198Z,42.27
2019-02-28T04:26:21.822Z,42.17
2019-02-28T04:27:21.814Z,42.47
2019-02-28T04:28:22.683Z,41.98
2019-02-28T04:29:21.776Z,42.17
2019-02-28T04:30:21.762Z,42.07
2019-02-28T04:31:22.675Z,42.27
2019-02-28T04:32:26.676Z,42.27
2019-02-28T04:33:22.729Z,42.89
2019-02-28T04:34:21.717Z,42.79
2019-02-28T04:35:25.297Z,42.29
2019-02-28T04:36:21.699Z,42.27
2019-02-28T04:37:21.721Z,43.01
2019-02-28T04:38:21.671Z,42.37
2019-02-28T04:39:22.768Z,42.91
2019-02-28T04:40:24.047Z,43.09
2019-02-28T04:41:22.677Z,43.09
2019-02-28T04:42:21.625Z,42.89
2019-02-28T04:43:22.181Z,42.79
2019-02-28T04:44:21.604Z,43.32
2019-02-28T04:45:23.287Z,42.27
2019-02-28T04:46:21.582Z,42.58
2019-02-28T04:47:21.569Z,43.09
2019-02-28T04:48:21.573Z,42.79
2019-02-28T04:49:22.751Z,43.09
2019-02-28T04:50:21.539Z,42.99
2019-02-28T04:51:21.523Z,43.12
2019-02-28T04:52:21.511Z,42.99
2019-02-28T04:53:21.530Z,43.09
2019-02-28T04:54:24.439Z,42.17
2019-02-28T04:55:22.482Z,42.19
2019-02-28T04:56:21.466Z,42.49
2019-02-28T04:57:21.628Z,42.27
2019-02-28T04:58:22.432Z,42.27
2019-02-28T04:59:21.450Z,42.49
2019-02-28T05:00:21.424Z,42.29
2019-02-28T05:01:21.412Z,42.37
2019-02-28T05:02:21.397Z,43.21
2019-02-28T05:03:21.394Z,42.91
2019-02-28T05:04:21.391Z,42.49
2019-02-28T05:05:21.365Z,43.01
2019-02-28T05:06:21.907Z,42.80
2019-02-28T05:07:21.341Z,43.73
2019-02-28T05:08:21.329Z,43.42
2019-02-28T05:09:21.347Z,43.42
2019-02-28T05:10:22.278Z,43.84
2019-02-28T05:11:21.296Z,42.70
2019-02-28T05:12:21.285Z,43.52
2019-02-28T05:13:21.282Z,42.49
2019-02-28T05:14:23.802Z,43.73
2019-02-28T05:15:21.265Z,43.21
2019-02-28T05:16:21.237Z,43.63
2019-02-28T05:17:22.269Z,43.52
2019-02-28T05:18:21.215Z,43.32
2019-02-28T05:19:21.206Z,43.52
2019-02-28T05:20:21.208Z,43.73
2019-02-28T05:21:21.180Z,44.14
2019-02-28T05:22:21.170Z,44.04
2019-02-28T05:23:21.162Z,43.73
2019-02-28T05:24:21.151Z,43.73
2019-02-28T05:25:21.153Z,43.73
2019-02-28T05:26:23.485Z,43.84
2019-02-28T05:27:24.320Z,44.24
2019-02-28T05:28:21.103Z,44.04
2019-02-28T05:29:21.088Z,43.63
2019-02-28T05:30:21.093Z,44.76
2019-02-28T05:31:21.071Z,44.96
2019-02-28T05:32:21.058Z,44.76
2019-02-28T05:33:21.041Z,44.14
2019-02-28T05:34:21.029Z,44.86
2019-02-28T05:35:25.556Z,44.76
2019-02-28T05:36:22.010Z,44.56
2019-02-28T05:37:20.997Z,44.86
2019-02-28T05:38:22.432Z,44.98
2019-02-28T05:39:20.978Z,45.50
2019-02-28T05:40:20.964Z,44.26
2019-02-28T05:41:20.966Z,45.29
2019-02-28T05:42:23.414Z,44.17
2019-02-28T05:43:20.930Z,44.98
2019-02-28T05:44:21.405Z,45.09
2019-02-28T05:45:20.916Z,46.12
2019-02-28T05:46:23.811Z,45.81
2019-02-28T05:47:20.884Z,45.91
2019-02-28T05:48:20.871Z,45.81
2019-02-28T05:49:20.861Z,45.40
2019-02-28T05:50:20.851Z,46.12
2019-02-28T05:51:20.872Z,46.01
2019-02-28T05:52:20.824Z,46.01
2019-02-28T05:53:20.813Z,45.50
2019-02-28T05:54:20.803Z,45.52
2019-02-28T05:55:24.468Z,46.14
2019-02-28T05:56:20.779Z,45.81
2019-02-28T05:57:20.785Z,46.04
2019-02-28T05:58:20.958Z,45.71
2019-02-28T05:59:25.989Z,46.43
2019-02-28T06:00:21.731Z,46.14
2019-02-28T06:01:20.726Z,46.14
2019-02-28T06:02:22.342Z,46.76
2019-02-28T06:03:20.700Z,46.97
2019-02-28T06:04:20.706Z,45.71
2019-02-28T06:05:20.675Z,46.76
2019-02-28T06:06:20.971Z,46.55
2019-02-28T06:07:20.669Z,47.15
2019-02-28T06:08:20.641Z,46.86
2019-02-28T06:09:20.629Z,47.06
2019-02-28T06:10:24.634Z,46.84
2019-02-28T06:11:20.607Z,47.17
2019-02-28T06:12:20.623Z,46.53
2019-02-28T06:13:20.589Z,46.97
2019-02-28T06:14:20.573Z,47.99
2019-02-28T06:15:20.564Z,47.38
2019-02-28T06:16:20.564Z,47.79
2019-02-28T06:17:21.660Z,47.58
2019-02-28T06:18:20.527Z,47.56
2019-02-28T06:19:20.515Z,47.58
2019-02-28T06:20:20.508Z,47.58
2019-02-28T06:21:23.456Z,48.10
2019-02-28T06:22:20.483Z,47.27
2019-02-28T06:23:20.503Z,47.35
2019-02-28T06:24:20.461Z,47.45
2019-02-28T06:25:24.113Z,47.56
2019-02-28T06:26:21.435Z,47.45
2019-02-28T06:27:20.432Z,47.58
2019-02-28T06:28:20.416Z,47.69
2019-02-28T06:29:20.416Z,47.56
2019-02-28T06:30:20.389Z,47.35
2019-02-28T06:31:20.380Z,47.97
2019-02-28T06:32:23.592Z,48.07
2019-02-28T06:33:21.249Z,48.18
2019-02-28T06:34:20.413Z,48.59
2019-02-28T06:35:20.618Z,48.07
2019-02-28T06:36:20.328Z,48.18
2019-02-28T06:37:20.313Z,48.07
2019-02-28T06:38:20.303Z,48.18
2019-02-28T06:39:20.318Z,48.07
2019-02-28T06:40:20.276Z,48.18
2019-02-28T06:41:20.267Z,48.18
2019-02-28T06:42:20.251Z,48.59
2019-02-28T06:43:20.240Z,48.28
2019-02-28T06:44:20.228Z,48.07
2019-02-28T06:45:20.235Z,48.07
2019-02-28T06:46:20.206Z,48.18
2019-02-28T06:47:20.200Z,48.90
2019-02-28T06:48:20.833Z,48.90
2019-02-28T06:49:20.173Z,48.90
2019-02-28T06:50:20.186Z,48.77
2019-02-28T06:51:20.148Z,49.72
2019-02-28T06:52:22.276Z,48.88
2019-02-28T06:53:20.127Z,49.29
2019-02-28T06:54:20.115Z,49.18
2019-02-28T06:55:20.119Z,48.98
2019-02-28T06:56:22.664Z,48.88
2019-02-28T06:57:20.081Z,49.70
2019-02-28T06:58:20.069Z,50.42
2019-02-28T06:59:20.058Z,49.16
2019-02-28T07:00:20.064Z,49.08
2019-02-28T07:01:22.654Z,49.08
2019-02-28T07:02:20.027Z,48.96
2019-02-28T07:03:20.013Z,49.57
2019-02-28T07:04:20.005Z,48.96
2019-02-28T07:05:24.823Z,48.63
2019-02-28T07:06:20.981Z,48.93
2019-02-28T07:07:20.712Z,49.04
2019-02-28T07:08:20.737Z,48.93
2019-02-28T07:09:19.946Z,48.93
2019-02-28T07:10:19.984Z,48.93
2019-02-28T07:11:20.739Z,48.93
2019-02-28T07:12:19.912Z,48.91
2019-02-28T07:13:19.904Z,49.11
2019-02-28T07:14:19.938Z,49.01
2019-02-28T07:15:23.608Z,48.07
2019-02-28T07:16:19.889Z,47.84
2019-02-28T07:17:19.855Z,48.66
2019-02-28T07:18:20.028Z,47.92
2019-02-28T07:19:19.831Z,47.20
2019-02-28T07:20:19.819Z,47.61
2019-02-28T07:21:19.809Z,47.69
2019-02-28T07:22:20.699Z,46.64
2019-02-28T07:23:19.785Z,46.23
2019-02-28T07:24:19.775Z,46.54
2019-02-28T07:25:19.763Z,47.03
2019-02-28T07:26:19.757Z,46.42
2019-02-28T07:27:19.767Z,45.68
2019-02-28T07:28:19.735Z,45.78
2019-02-28T07:29:19.716Z,45.57
2019-02-28T07:30:19.780Z,45.76
2019-02-28T07:31:21.732Z,46.07
2019-02-28T07:32:19.681Z,46.07
2019-02-28T07:33:19.687Z,45.86
2019-02-28T07:34:22.057Z,45.23
2019-02-28T07:35:19.656Z,46.25
2019-02-28T07:36:19.642Z,45.33
2019-02-28T07:37:19.716Z,45.43
2019-02-28T07:38:19.641Z,45.41
2019-02-28T07:39:19.603Z,45.41
2019-02-28T07:40:19.605Z,45.82
2019-02-28T07:41:20.317Z,45.92
2019-02-28T07:42:19.577Z,45.41
2019-02-28T07:43:19.586Z,45.59
2019-02-28T07:44:22.190Z,46.00
2019-02-28T07:45:19.541Z,45.06
2019-02-28T07:46:19.522Z,45.17
2019-02-28T07:47:19.513Z,45.65
2019-02-28T07:48:19.502Z,45.35
2019-02-28T07:49:19.512Z,45.45
2019-02-28T07:50:19.483Z,45.55
2019-02-28T07:51:22.659Z,45.12
2019-02-28T07:52:20.524Z,44.92
2019-02-28T07:53:19.448Z,44.59
2019-02-28T07:54:20.502Z,44.71
2019-02-28T07:55:19.427Z,44.69
2019-02-28T07:56:19.412Z,45.00
2019-02-28T07:57:19.401Z,44.90
2019-02-28T07:58:19.389Z,45.00
2019-02-28T07:59:20.298Z,45.31
2019-02-28T08:00:19.729Z,45.18
2019-02-28T08:01:19.354Z,44.87
2019-02-28T08:02:19.342Z,45.18
2019-02-28T08:03:19.331Z,44.55
2019-02-28T08:04:19.466Z,44.34
2019-02-28T08:05:19.322Z,43.73
2019-02-28T08:06:19.298Z,44.34
2019-02-28T08:07:19.286Z,44.65
2019-02-28T08:08:19.277Z,44.87
2019-02-28T08:09:19.263Z,44.85
2019-02-28T08:10:19.268Z,44.96
2019-02-28T08:11:19.996Z,45.16
2019-02-28T08:12:19.230Z,44.85
2019-02-28T08:13:19.219Z,44.43
2019-02-28T08:14:19.207Z,44.43
2019-02-28T08:15:22.444Z,44.43
2019-02-28T08:16:19.187Z,43.61
2019-02-28T08:17:19.173Z,43.29
2019-02-28T08:18:19.657Z,43.47
2019-02-28T08:19:19.161Z,43.47
2019-02-28T08:20:19.169Z,43.16
2019-02-28T08:21:19.127Z,43.57
2019-02-28T08:22:23.303Z,42.76
2019-02-28T08:23:20.103Z,42.76
2019-02-28T08:24:19.094Z,43.06
2019-02-28T08:25:19.087Z,42.88
2019-02-28T08:26:19.791Z,43.47
2019-02-28T08:27:19.062Z,43.47
2019-02-28T08:28:19.052Z,43.65
2019-02-28T08:29:19.037Z,42.94
2019-02-28T08:30:19.599Z,43.32
2019-02-28T08:31:19.047Z,43.32
2019-02-28T08:32:19.004Z,43.14
2019-02-28T08:33:18.990Z,43.14
2019-02-28T08:34:20.703Z,42.71
2019-02-28T08:35:18.976Z,43.00
2019-02-28T08:36:18.958Z,42.92
2019-02-28T08:37:19.999Z,42.82
2019-02-28T08:38:18.932Z,43.20
2019-02-28T08:39:18.928Z,43.08
2019-02-28T08:40:18.919Z,43.29
2019-02-28T08:41:18.922Z,42.17
2019-02-28T08:42:18.906Z,42.66
2019-02-28T08:43:26.824Z,42.33
2019-02-28T08:44:23.773Z,41.62
2019-02-28T08:45:18.856Z,41.72
2019-02-28T08:46:18.846Z,41.60
2019-02-28T08:47:21.135Z,41.62
2019-02-28T08:48:18.833Z,41.60
2019-02-28T08:49:18.806Z,41.60
2019-02-28T08:50:20.577Z,41.58
2019-02-28T08:51:18.783Z,41.88
2019-02-28T08:52:18.772Z,42.19
2019-02-28T08:53:19.690Z,42.09
2019-02-28T08:54:26.140Z,41.86
2019-02-28T08:55:28.131Z,41.56
2019-02-28T08:56:21.255Z,42.07
2019-02-28T08:57:18.715Z,42.17
2019-02-28T08:58:18.708Z,41.77
2019-02-28T08:59:22.348Z,41.78
2019-02-28T09:00:18.681Z,41.56
2019-02-28T09:01:18.672Z,41.86
2019-02-28T09:02:19.049Z,41.26
2019-02-28T09:03:18.647Z,41.36
2019-02-28T09:04:18.663Z,42.47
2019-02-28T09:05:18.624Z,42.27
2019-02-28T09:06:18.616Z,41.97
2019-02-28T09:07:18.607Z,42.05
2019-02-28T09:08:18.598Z,41.85
2019-02-28T09:09:18.579Z,42.46
2019-02-28T09:10:18.589Z,42.13
2019-02-28T09:11:20.969Z,41.93
2019-02-28T09:12:18.545Z,41.83
2019-02-28T09:13:18.551Z,42.86
2019-02-28T09:14:18.709Z,43.04
2019-02-28T09:15:18.542Z,43.24
2019-02-28T09:16:18.499Z,42.61
2019-02-28T09:17:19.329Z,41.78
2019-02-28T09:18:18.476Z,41.26
2019-02-28T09:19:18.465Z,40.73
2019-02-28T09:20:18.456Z,40.31
2019-02-28T09:21:19.116Z,39.99
2019-02-28T09:22:18.433Z,40.17
2019-02-28T09:23:18.427Z,38.64
2019-02-28T09:24:18.411Z,38.82
2019-02-28T09:25:21.152Z,37.98
2019-02-28T09:26:18.418Z,37.36
2019-02-28T09:27:18.377Z,36.62
2019-02-28T09:28:18.364Z,35.80
2019-02-28T09:29:20.974Z,35.16
2019-02-28T09:30:18.342Z,34.51
2019-02-28T09:31:18.333Z,33.49
2019-02-28T09:32:18.335Z,32.67
2019-02-28T09:33:19.265Z,31.84
2019-02-28T09:34:18.297Z,31.12
2019-02-28T09:35:18.287Z,30.90
2019-02-28T09:36:20.692Z,29.55
2019-02-28T09:37:18.279Z,30.04
2019-02-28T09:38:18.250Z,29.43
2019-02-28T09:39:19.445Z,28.90
2019-02-28T09:40:18.229Z,28.58
2019-02-28T09:41:19.088Z,27.87
2019-02-28T09:42:18.206Z,27.76
2019-02-28T09:43:18.218Z,27.05
2019-02-28T09:44:18.184Z,27.67
2019-02-28T09:45:18.186Z,27.67
2019-02-28T09:46:18.787Z,27.67
2019-02-28T09:47:18.149Z,27.47
2019-02-28T09:48:18.155Z,27.36
2019-02-28T09:49:18.127Z,27.28
2019-02-28T09:50:19.427Z,27.26
2019-02-28T09:51:18.105Z,27.26
2019-02-28T09:52:18.093Z,26.67
2019-02-28T09:53:18.100Z,27.06
2019-02-28T09:54:18.073Z,26.95
2019-02-28T09:55:18.060Z,26.56
2019-02-28T09:56:19.432Z,27.15
2019-02-28T09:57:18.943Z,26.84
2019-02-28T09:58:18.054Z,26.44
2019-02-28T09:59:18.016Z,26.84
2019-02-28T10:00:18.003Z,26.53
2019-02-28T10:01:17.992Z,25.92
2019-02-28T10:02:17.984Z,25.32
2019-02-28T10:03:18.607Z,25.84
2019-02-28T10:04:17.988Z,25.62
2019-02-28T10:05:17.956Z,25.52
2019-02-28T10:06:17.937Z,26.10
2019-02-28T10:07:17.927Z,25.00
2019-02-28T10:08:17.915Z,25.61
2019-02-28T10:09:17.902Z,25.31
2019-02-28T10:10:21.074Z,25.04
2019-02-28T10:11:17.881Z,25.93
2019-02-28T10:12:17.868Z,25.93
2019-02-28T10:13:18.513Z,26.12
2019-02-28T10:14:17.847Z,25.81
2019-02-28T10:15:17.852Z,25.31
2019-02-28T10:16:17.823Z,25.60
2019-02-28T10:17:17.813Z,25.21
2019-02-28T10:18:17.801Z,25.40
2019-02-28T10:19:17.789Z,25.30
2019-02-28T10:20:17.810Z,25.29
2019-02-28T10:21:17.768Z,24.88
2019-02-28T10:22:17.757Z,24.19
2019-02-28T10:23:18.474Z,24.18
2019-02-28T10:24:17.758Z,23.97
2019-02-28T10:25:17.723Z,24.18
2019-02-28T10:26:17.908Z,24.18
2019-02-28T10:27:17.742Z,23.78
2019-02-28T10:28:17.692Z,24.27
2019-02-28T10:29:17.685Z,24.67
2019-02-28T10:30:17.668Z,24.47
2019-02-28T10:31:17.686Z,25.31
2019-02-28T10:32:17.643Z,25.62
2019-02-28T10:33:18.093Z,25.51
2019-02-28T10:34:17.623Z,26.02
2019-02-28T10:35:18.510Z,26.12
2019-02-28T10:36:17.630Z,25.12
2019-02-28T10:37:19.319Z,25.31
2019-02-28T10:38:17.575Z,26.10
2019-02-28T10:39:17.567Z,25.19
2019-02-28T10:40:18.502Z,25.27
2019-02-28T10:41:18.259Z,25.79
2019-02-28T10:42:17.565Z,25.49
2019-02-28T10:43:17.528Z,25.29
2019-02-28T10:44:17.513Z,24.88
2019-02-28T10:45:17.500Z,25.20
2019-02-28T10:46:20.118Z,26.90
2019-02-28T10:47:17.483Z,26.93
2019-02-28T10:48:17.491Z,27.66
2019-02-28T10:49:17.463Z,28.50
2019-02-28T10:50:17.446Z,29.00
2019-02-28T10:51:17.436Z,29.52
2019-02-28T10:52:17.427Z,29.52
2019-02-28T10:53:17.434Z,29.35
2019-02-28T10:54:17.404Z,30.58
2019-02-28T10:55:19.377Z,30.46
2019-02-28T10:56:17.384Z,30.35
2019-02-28T10:57:17.370Z,29.52
2019-02-28T10:58:17.371Z,30.02
2019-02-28T10:59:17.348Z,29.90
2019-02-28T11:00:17.342Z,28.96
2019-02-28T11:01:17.326Z,28.23
2019-02-28T11:02:19.795Z,27.61
2019-02-28T11:03:17.332Z,26.78
2019-02-28T11:04:17.290Z,26.07
2019-02-28T11:05:18.754Z,26.06
2019-02-28T11:06:17.284Z,25.37
2019-02-28T11:07:17.259Z,24.87
2019-02-28T11:08:19.175Z,25.24
2019-02-28T11:09:18.295Z,24.44
2019-02-28T11:10:17.226Z,24.52
2019-02-28T11:11:17.216Z,24.44
2019-02-28T11:12:20.322Z,24.25
2019-02-28T11:13:18.190Z,24.46
2019-02-28T11:14:17.211Z,25.39
2019-02-28T11:15:17.170Z,26.74
2019-02-28T11:16:17.157Z,29.20
2019-02-28T11:17:17.145Z,31.15
2019-02-28T11:18:17.136Z,31.59
2019-02-28T11:19:19.450Z,32.96
2019-02-28T11:20:22.224Z,34.71
2019-02-28T11:21:18.103Z,35.36
2019-02-28T11:22:17.095Z,37.45
2019-02-28T11:23:17.090Z,38.79
2019-02-28T11:24:17.068Z,39.73
2019-02-28T11:25:17.077Z,40.08
2019-02-28T11:26:17.045Z,40.59
2019-02-28T11:27:19.719Z,41.24
2019-02-28T11:28:18.030Z,42.58
2019-02-28T11:29:17.013Z,42.80
2019-02-28T11:30:17.031Z,43.41
2019-02-28T11:31:19.169Z,42.92
2019-02-28T11:32:16.984Z,43.43
2019-02-28T11:33:16.970Z,44.54
2019-02-28T11:34:18.787Z,44.96
2019-02-28T11:35:16.948Z,45.17
2019-02-28T11:36:16.957Z,44.76
2019-02-28T11:37:23.783Z,45.47
2019-02-28T11:38:20.341Z,44.87
2019-02-28T11:39:16.898Z,45.37
2019-02-28T11:40:16.888Z,45.27
2019-02-28T11:41:18.573Z,44.76
2019-02-28T11:42:16.864Z,45.27
2019-02-28T11:43:16.854Z,45.07
2019-02-28T11:44:16.845Z,45.27
2019-02-28T11:45:18.538Z,46.18
2019-02-28T11:46:16.851Z,46.18
2019-02-28T11:47:16.809Z,46.30
2019-02-28T11:48:20.120Z,47.11
2019-02-28T11:49:16.787Z,47.11
2019-02-28T11:50:16.776Z,46.59
2019-02-28T11:51:17.819Z,46.28
2019-02-28T11:52:16.788Z,45.57
2019-02-28T11:53:16.747Z,46.28
2019-02-28T11:54:16.730Z,45.79
2019-02-28T11:55:20.167Z,46.30
2019-02-28T11:56:16.709Z,46.30
2019-02-28T11:57:16.696Z,47.02
2019-02-28T11:58:17.946Z,47.22
2019-02-28T11:59:16.677Z,46.71
2019-02-28T12:00:16.664Z,47.62
2019-02-28T12:01:16.677Z,47.19
2019-02-28T12:02:20.230Z,47.19
2019-02-28T12:03:16.647Z,47.90
2019-02-28T12:04:16.622Z,47.90
2019-02-28T12:05:16.614Z,46.69
2019-02-28T12:06:16.596Z,46.59
2019-02-28T12:07:16.585Z,47.09
2019-02-28T12:08:16.600Z,46.91
2019-02-28T12:09:19.274Z,47.52
2019-02-28T12:10:16.550Z,46.71
2019-02-28T12:11:16.539Z,47.92
2019-02-28T12:12:16.528Z,46.61
2019-02-28T12:13:19.605Z,47.31
2019-02-28T12:14:16.537Z,47.72
2019-02-28T12:15:16.494Z,47.52
2019-02-28T12:16:19.133Z,47.34
2019-02-28T12:17:16.471Z,47.92
2019-02-28T12:18:16.461Z,47.42
2019-02-28T12:19:16.819Z,47.02
2019-02-28T12:20:16.466Z,47.31
2019-02-28T12:21:16.425Z,46.81
2019-02-28T12:22:16.414Z,47.11
2019-02-28T12:23:16.402Z,47.31
2019-02-28T12:24:16.392Z,47.52
2019-02-28T12:25:16.387Z,47.80
2019-02-28T12:26:17.722Z,47.39
2019-02-28T12:27:16.358Z,46.81
2019-02-28T12:28:16.348Z,47.92
2019-02-28T12:29:18.214Z,47.62
2019-02-28T12:30:16.323Z,47.31
2019-02-28T12:31:16.331Z,47.92
2019-02-28T12:32:16.301Z,47.92
2019-02-28T12:33:18.985Z,47.42
2019-02-28T12:34:17.276Z,47.42
2019-02-28T12:35:16.266Z,47.39
2019-02-28T12:36:16.272Z,47.22
2019-02-28T12:37:16.245Z,47.31
2019-02-28T12:38:16.231Z,47.82
2019-02-28T12:39:16.218Z,47.62
2019-02-28T12:40:16.211Z,47.42
2019-02-28T12:41:16.212Z,47.62
2019-02-28T12:42:16.184Z,47.22
2019-02-28T12:43:16.174Z,48.33
2019-02-28T12:44:16.222Z,47.52
2019-02-28T12:45:16.150Z,47.31
2019-02-28T12:46:16.171Z,47.52
2019-02-28T12:47:16.127Z,47.09
2019-02-28T12:48:16.119Z,47.70
2019-02-28T12:49:16.104Z,47.39
2019-02-28T12:50:16.094Z,47.39
2019-02-28T12:51:16.084Z,48.03
2019-02-28T12:52:16.097Z,47.82